createdAt,value
2024-04-21T00:00:15.183Z,7.59
2024-04-21T00:03:03.367Z,7.60
2024-04-21T00:05:31.756Z,7.63
2024-04-21T00:08:00.225Z,7.65
2024-04-21T00:10:29.211Z,7.65
2024-04-21T00:12:57.468Z,7.66
2024-04-21T00:15:25.713Z,7.66
2024-04-21T00:17:53.913Z,7.65
2024-04-21T00:20:22.001Z,7.63
2024-04-21T00:22:50.953Z,7.62
2024-04-21T00:25:18.995Z,7.62
2024-04-21T00:27:47.164Z,7.60
2024-04-21T00:30:15.374Z,7.58
2024-04-21T00:32:43.818Z,7.56
2024-04-21T00:35:11.878Z,7.56
2024-04-21T00:37:39.963Z,7.56
2024-04-21T00:40:08.614Z,7.57
2024-04-21T00:42:36.731Z,7.59
2024-04-21T00:45:05.241Z,7.60
2024-04-21T00:47:34.488Z,7.61
2024-04-21T00:50:02.810Z,7.61
2024-04-21T00:52:31.451Z,7.61
2024-04-21T00:54:59.539Z,7.59
2024-04-21T00:57:27.747Z,7.56
2024-04-21T00:59:55.798Z,7.56
2024-04-21T01:02:23.956Z,7.53
2024-04-21T01:04:53.060Z,7.49
2024-04-21T01:07:21.359Z,7.46
2024-04-21T01:09:49.547Z,7.42
2024-04-21T01:12:17.653Z,7.40
2024-04-21T01:14:45.976Z,7.37
2024-04-21T01:17:14.131Z,7.38
2024-04-21T01:19:42.185Z,7.39
2024-04-21T01:22:10.208Z,7.41
2024-04-21T01:24:38.266Z,7.44
2024-04-21T01:27:06.698Z,7.45
2024-04-21T01:29:34.884Z,7.45
2024-04-21T01:32:02.993Z,7.44
2024-04-21T01:34:31.060Z,7.45
2024-04-21T01:36:59.148Z,7.43
2024-04-21T01:39:27.317Z,7.42
2024-04-21T01:41:55.357Z,7.39
2024-04-21T01:44:23.445Z,7.36
2024-04-21T01:46:51.606Z,7.31
2024-04-21T01:49:21.688Z,7.32
2024-04-21T01:51:49.841Z,7.33
2024-04-21T01:54:17.934Z,7.35
2024-04-21T01:56:45.992Z,7.38
2024-04-21T01:59:14.110Z,7.40
2024-04-21T02:01:42.292Z,7.41
2024-04-21T02:04:10.656Z,7.42
2024-04-21T02:06:38.836Z,7.43
2024-04-21T02:09:07.343Z,7.42
2024-04-21T02:11:35.452Z,7.42
2024-04-21T02:14:03.577Z,7.41
2024-04-21T02:16:31.725Z,7.41
2024-04-21T02:18:59.764Z,7.39
2024-04-21T02:21:27.864Z,7.38
2024-04-21T02:23:56.115Z,7.37
2024-04-21T02:26:24.312Z,7.36
2024-04-21T02:28:52.365Z,7.36
2024-04-21T02:31:20.534Z,7.37
2024-04-21T02:33:48.704Z,7.38
2024-04-21T02:36:18.157Z,7.40
2024-04-21T02:38:46.314Z,7.42
2024-04-21T02:41:14.371Z,7.43
2024-04-21T02:43:42.495Z,7.44
2024-04-21T02:46:11.677Z,7.44
2024-04-21T02:48:39.900Z,7.43
2024-04-21T02:51:08.018Z,7.41
2024-04-21T02:53:36.049Z,7.39
2024-04-21T02:56:04.487Z,7.37
2024-04-21T02:58:32.631Z,7.33
2024-04-21T03:01:05.545Z,7.34
2024-04-21T03:03:33.751Z,7.35
2024-04-21T03:06:01.868Z,7.36
2024-04-21T03:08:29.979Z,7.36
2024-04-21T03:10:58.063Z,7.37
2024-04-21T03:13:27.954Z,7.38
2024-04-21T03:15:56.208Z,7.38
2024-04-21T03:18:24.285Z,7.37
2024-04-21T03:20:57.135Z,7.36
2024-04-21T03:23:25.154Z,7.35
2024-04-21T03:25:53.775Z,7.32
2024-04-21T03:28:22.212Z,7.30
2024-04-21T03:31:01.108Z,7.29
2024-04-21T03:33:29.639Z,7.31
2024-04-21T03:36:06.131Z,7.32
2024-04-21T03:38:35.938Z,7.33
2024-04-21T03:41:05.439Z,7.36
2024-04-21T03:43:33.838Z,7.38
2024-04-21T03:46:01.951Z,7.39
2024-04-21T03:48:30.036Z,7.40
2024-04-21T03:50:58.099Z,7.40
2024-04-21T03:53:26.190Z,7.40
2024-04-21T03:55:54.327Z,7.40
2024-04-21T03:58:22.517Z,7.39
2024-04-21T04:00:50.784Z,7.38
2024-04-21T04:03:19.069Z,7.39
2024-04-21T04:05:47.615Z,7.42
2024-04-21T04:08:16.771Z,7.45
2024-04-21T04:10:45.705Z,7.49
2024-04-21T04:13:13.885Z,7.52
2024-04-21T04:15:41.950Z,7.53
2024-04-21T04:18:10.505Z,7.54
2024-04-21T04:20:38.933Z,7.52
2024-04-21T04:23:07.187Z,7.51
2024-04-21T04:25:35.275Z,7.50
2024-04-21T04:28:03.764Z,7.48
2024-04-21T04:30:31.909Z,7.48
2024-04-21T04:33:00.214Z,7.47
2024-04-21T04:35:28.574Z,7.50
2024-04-21T04:37:56.693Z,7.52
2024-04-21T04:40:24.848Z,7.55
2024-04-21T04:42:53.064Z,7.61
2024-04-21T04:45:21.779Z,7.63
2024-04-21T04:47:49.997Z,7.65
2024-04-21T04:50:18.160Z,7.66
2024-04-21T04:52:46.252Z,7.66
2024-04-21T04:55:15.782Z,7.66
2024-04-21T04:57:43.830Z,7.66
2024-04-21T05:00:12.433Z,7.66
2024-04-21T05:02:40.547Z,7.65
2024-04-21T05:05:08.641Z,7.65
2024-04-21T05:07:36.771Z,7.66
2024-04-21T05:10:05.395Z,7.69
2024-04-21T05:12:33.521Z,7.72
2024-04-21T05:15:01.707Z,7.75
2024-04-21T05:17:29.829Z,7.78
2024-04-21T05:19:58.015Z,7.80
2024-04-21T05:22:26.261Z,7.81
2024-04-21T05:24:54.471Z,7.83
2024-04-21T05:27:22.622Z,7.83
2024-04-21T05:29:54.923Z,7.81
2024-04-21T05:32:23.176Z,7.79
2024-04-21T05:34:51.421Z,7.76
2024-04-21T05:37:19.717Z,7.73
2024-04-21T05:39:47.962Z,7.73
2024-04-21T05:42:16.367Z,7.76
2024-04-21T05:44:44.915Z,7.79
2024-04-21T05:47:13.045Z,7.82
2024-04-21T05:49:41.165Z,7.86
2024-04-21T05:52:09.384Z,7.91
2024-04-21T05:54:37.486Z,7.93
2024-04-21T05:57:05.752Z,7.93
2024-04-21T05:59:33.873Z,7.92
2024-04-21T06:02:01.934Z,7.92
2024-04-21T06:04:33.135Z,7.91
2024-04-21T06:07:01.431Z,7.92
2024-04-21T06:09:29.487Z,7.95
2024-04-21T06:11:57.557Z,8.01
2024-04-21T06:14:25.676Z,8.05
2024-04-21T06:16:53.842Z,8.13
2024-04-21T06:19:22.096Z,8.18
2024-04-21T06:21:50.294Z,8.22
2024-04-21T06:24:18.428Z,8.26
2024-04-21T06:26:49.948Z,8.29
2024-04-21T06:29:18.418Z,8.32
2024-04-21T06:31:46.611Z,8.38
2024-04-21T06:34:15.044Z,8.43
2024-04-21T06:36:43.174Z,8.49
2024-04-21T06:39:11.271Z,8.56
2024-04-21T06:41:39.397Z,8.63
2024-04-21T06:44:07.507Z,8.75
2024-04-21T06:46:35.542Z,8.85
2024-04-21T06:49:03.811Z,8.91
2024-04-21T06:51:31.903Z,8.94
2024-04-21T06:53:59.960Z,8.95
2024-04-21T06:56:28.128Z,9.00
2024-04-21T06:58:56.319Z,9.03
2024-04-21T07:01:24.492Z,9.10
2024-04-21T07:03:52.850Z,9.17
2024-04-21T07:06:21.116Z,9.26
2024-04-21T07:08:49.152Z,9.32
2024-04-21T07:11:17.258Z,9.43
2024-04-21T07:13:45.378Z,9.51
2024-04-21T07:16:13.484Z,9.60
2024-04-21T07:18:41.760Z,9.70
2024-04-21T07:21:09.867Z,9.79
2024-04-21T07:23:38.516Z,9.90
2024-04-21T07:26:06.554Z,10.00
2024-04-21T07:28:34.669Z,10.18
2024-04-21T07:31:03.208Z,10.35
2024-04-21T07:33:31.282Z,10.47
2024-04-21T07:35:59.467Z,10.57
2024-04-21T07:38:27.521Z,10.70
2024-04-21T07:40:55.585Z,10.82
2024-04-21T07:43:24.159Z,10.97
2024-04-21T07:45:52.256Z,11.11
2024-04-21T07:48:20.476Z,11.30
2024-04-21T07:50:48.844Z,11.49
2024-04-21T07:53:16.923Z,11.67
2024-04-21T07:55:44.992Z,11.76
2024-04-21T07:58:13.129Z,11.84
2024-04-21T08:00:41.235Z,11.87
2024-04-21T08:03:09.394Z,12.01
2024-04-21T08:05:37.519Z,12.17
2024-04-21T08:08:05.826Z,12.37
2024-04-21T08:10:42.536Z,12.49
2024-04-21T08:13:15.764Z,12.60
2024-04-21T08:15:43.845Z,12.62
2024-04-21T08:18:12.040Z,12.65
2024-04-21T08:20:40.145Z,12.63
2024-04-21T08:23:08.201Z,12.74
2024-04-21T08:25:37.096Z,12.84
2024-04-21T08:28:05.295Z,12.99
2024-04-21T08:30:33.439Z,13.15
2024-04-21T08:33:01.638Z,13.34
2024-04-21T08:35:30.308Z,13.61
2024-04-21T08:37:58.442Z,13.97
2024-04-21T08:40:26.559Z,14.34
2024-04-21T08:43:02.183Z,14.48
2024-04-21T08:45:30.673Z,14.47
2024-04-21T08:47:58.908Z,14.50
2024-04-21T08:50:28.065Z,14.44
2024-04-21T08:52:56.635Z,14.32
2024-04-21T08:55:27.937Z,14.27
2024-04-21T08:57:56.201Z,14.37
2024-04-21T09:00:24.395Z,14.81
2024-04-21T09:02:52.796Z,15.33
2024-04-21T09:05:21.423Z,15.85
2024-04-21T09:07:59.616Z,16.51
2024-04-21T09:10:28.011Z,16.92
2024-04-21T09:12:56.145Z,16.99
2024-04-21T09:15:24.318Z,16.88
2024-04-21T09:17:52.627Z,16.54
2024-04-21T09:20:20.987Z,16.54
2024-04-21T09:22:49.122Z,17.02
2024-04-21T09:25:18.780Z,17.28
2024-04-21T09:27:50.153Z,17.36
2024-04-21T09:30:19.952Z,17.25
2024-04-21T09:32:48.800Z,17.10
2024-04-21T09:35:18.810Z,16.78
2024-04-21T09:37:47.244Z,16.37
2024-04-21T09:40:16.254Z,15.87
2024-04-21T09:42:47.174Z,15.43
2024-04-21T09:45:17.904Z,15.43
2024-04-21T09:47:48.154Z,15.78
2024-04-21T09:50:17.358Z,16.28
2024-04-21T09:52:50.847Z,16.54
2024-04-21T09:55:26.209Z,16.80
2024-04-21T09:58:02.685Z,17.05
2024-04-21T10:00:32.635Z,17.33
2024-04-21T10:03:06.073Z,17.63
2024-04-21T10:05:35.886Z,17.80
2024-04-21T10:08:07.244Z,17.58
2024-04-21T10:10:39.827Z,17.30
2024-04-21T10:13:08.728Z,17.17
2024-04-21T10:15:37.984Z,16.90
2024-04-21T10:18:06.222Z,16.74
2024-04-21T10:20:38.911Z,16.83
2024-04-21T10:23:11.599Z,17.03
2024-04-21T10:25:46.243Z,17.29
2024-04-21T10:28:25.615Z,17.48
2024-04-21T10:31:07.732Z,17.67
2024-04-21T10:33:40.153Z,18.07
2024-04-21T10:36:21.447Z,18.35
2024-04-21T10:38:54.328Z,18.41
2024-04-21T10:41:23.480Z,18.48
2024-04-21T10:43:55.117Z,18.46
2024-04-21T10:46:23.996Z,18.36
2024-04-21T10:48:52.117Z,18.41
2024-04-21T10:51:20.212Z,18.54
2024-04-21T10:53:49.474Z,18.54
2024-04-21T10:56:17.671Z,18.45
2024-04-21T10:58:49.888Z,18.42
2024-04-21T11:01:18.298Z,18.57
2024-04-21T11:03:46.503Z,18.78
2024-04-21T11:06:14.750Z,18.89
2024-04-21T11:08:44.052Z,18.98
2024-04-21T11:11:13.201Z,19.02
2024-04-21T11:13:41.432Z,19.18
2024-04-21T11:16:13.698Z,19.57
2024-04-21T11:18:42.110Z,19.93
2024-04-21T11:21:10.270Z,20.16
2024-04-21T11:23:40.522Z,20.13
2024-04-21T11:26:09.359Z,20.09
2024-04-21T11:28:37.446Z,19.78
2024-04-21T11:31:07.089Z,19.54
2024-04-21T11:33:36.936Z,19.77
2024-04-21T11:36:13.834Z,20.01
2024-04-21T11:38:41.909Z,20.32
2024-04-21T11:41:13.083Z,20.54
2024-04-21T11:43:44.861Z,20.78
2024-04-21T11:46:12.866Z,21.11
2024-04-21T11:48:41.038Z,21.22
2024-04-21T11:51:09.212Z,21.62
2024-04-21T11:53:37.205Z,21.92
2024-04-21T11:56:05.604Z,22.04
2024-04-21T11:58:35.549Z,21.99
2024-04-21T12:01:05.030Z,21.98
2024-04-21T12:03:34.081Z,21.98
2024-04-21T12:06:02.216Z,21.81
2024-04-21T12:08:30.206Z,21.62
2024-04-21T12:10:58.336Z,21.49
2024-04-21T12:13:26.475Z,21.60
2024-04-21T12:15:54.551Z,21.94
2024-04-21T12:18:23.815Z,21.98
2024-04-21T12:20:51.840Z,22.01
2024-04-21T12:23:19.867Z,21.88
2024-04-21T12:25:47.826Z,21.50
2024-04-21T12:28:15.787Z,21.16
2024-04-21T12:30:44.520Z,20.53
2024-04-21T12:33:12.872Z,20.00
2024-04-21T12:35:40.910Z,19.76
2024-04-21T12:38:08.875Z,19.58
2024-04-21T12:40:36.989Z,18.92
2024-04-21T12:43:05.038Z,18.35
2024-04-21T12:45:35.951Z,18.07
2024-04-21T12:48:05.371Z,17.98
2024-04-21T12:50:33.808Z,17.85
2024-04-21T12:53:02.024Z,17.70
2024-04-21T12:55:30.426Z,17.56
2024-04-21T12:57:58.761Z,17.30
2024-04-21T13:00:27.007Z,16.91
2024-04-21T13:02:55.117Z,16.41
2024-04-21T13:05:23.433Z,16.07
2024-04-21T13:07:51.428Z,15.78
2024-04-21T13:10:19.611Z,15.60
2024-04-21T13:12:47.745Z,15.48
2024-04-21T13:15:15.756Z,15.37
2024-04-21T13:17:47.073Z,15.30
2024-04-21T13:20:15.802Z,15.31
2024-04-21T13:22:44.187Z,15.24
2024-04-21T13:25:14.703Z,15.19
2024-04-21T13:27:42.953Z,15.17
2024-04-21T13:30:11.331Z,15.08
2024-04-21T13:32:39.444Z,15.02
2024-04-21T13:35:08.090Z,15.03
2024-04-21T13:37:37.123Z,15.13
2024-04-21T13:40:06.999Z,15.20
2024-04-21T13:42:35.264Z,15.18
2024-04-21T13:45:03.384Z,15.09
2024-04-21T13:47:33.555Z,14.95
2024-04-21T13:50:02.131Z,14.85
2024-04-21T13:52:30.237Z,14.79
2024-04-21T13:54:59.374Z,14.76
2024-04-21T13:57:28.562Z,14.72
2024-04-21T13:59:57.302Z,14.73
2024-04-21T14:02:27.238Z,14.78
2024-04-21T14:04:55.318Z,14.85
2024-04-21T14:07:23.365Z,15.09
2024-04-21T14:09:51.403Z,15.53
2024-04-21T14:12:19.580Z,15.93
2024-04-21T14:14:48.619Z,16.22
2024-04-21T14:17:16.612Z,16.35
2024-04-21T14:19:44.702Z,16.39
2024-04-21T14:22:12.815Z,16.25
2024-04-21T14:24:40.758Z,16.03
2024-04-21T14:27:08.806Z,15.92
2024-04-21T14:29:40.551Z,15.85
2024-04-21T14:32:11.544Z,15.72
2024-04-21T14:34:39.554Z,15.65
2024-04-21T14:37:08.202Z,15.61
2024-04-21T14:39:36.486Z,15.61
2024-04-21T14:42:04.576Z,15.66
2024-04-21T14:44:38.467Z,15.89
2024-04-21T14:47:06.664Z,16.13
2024-04-21T14:49:34.766Z,16.37
2024-04-21T14:52:02.811Z,16.61
2024-04-21T14:54:31.162Z,16.79
2024-04-21T14:57:01.713Z,16.80
2024-04-21T14:59:29.711Z,16.63
2024-04-21T15:01:57.787Z,16.60
2024-04-21T15:04:25.789Z,16.38
2024-04-21T15:06:53.865Z,16.05
2024-04-21T15:09:21.849Z,15.92
2024-04-21T15:11:49.788Z,15.79
2024-04-21T15:14:17.804Z,15.93
2024-04-21T15:16:46.316Z,16.00
2024-04-21T15:19:14.505Z,16.10
2024-04-21T15:21:42.555Z,16.15
2024-04-21T15:24:10.551Z,16.16
2024-04-21T15:26:38.526Z,16.16
2024-04-21T15:29:06.494Z,16.00
2024-04-21T15:31:34.461Z,15.88
2024-04-21T15:34:02.561Z,15.68
2024-04-21T15:36:49.811Z,15.47
2024-04-21T15:39:17.848Z,15.25
2024-04-21T15:41:45.896Z,15.05
2024-04-21T15:44:14.181Z,14.86
2024-04-21T15:46:42.944Z,14.62
2024-04-21T15:49:10.993Z,14.35
2024-04-21T15:51:39.052Z,14.16
2024-04-21T15:54:08.756Z,14.03
2024-04-21T15:56:36.863Z,13.89
2024-04-21T15:59:04.835Z,13.79
2024-04-21T16:01:32.816Z,13.74
2024-04-21T16:04:01.212Z,13.70
2024-04-21T16:06:29.374Z,13.70
2024-04-21T16:08:57.372Z,13.69
2024-04-21T16:11:25.407Z,13.63
2024-04-21T16:13:53.385Z,13.56
2024-04-21T16:16:21.390Z,13.46
2024-04-21T16:18:49.492Z,13.37
2024-04-21T16:21:17.443Z,13.27
2024-04-21T16:23:45.466Z,13.16
2024-04-21T16:26:13.455Z,13.06
2024-04-21T16:28:41.528Z,12.91
2024-04-21T16:31:09.689Z,12.80
2024-04-21T16:33:38.046Z,12.68
2024-04-21T16:36:07.739Z,12.55
2024-04-21T16:38:36.684Z,12.43
2024-04-21T16:41:05.053Z,12.28
2024-04-21T16:43:35.195Z,12.15
2024-04-21T16:46:06.579Z,12.03
2024-04-21T16:48:34.931Z,11.90
2024-04-21T16:51:03.267Z,11.79
2024-04-21T16:53:31.668Z,11.69
2024-04-21T16:55:59.945Z,11.59
2024-04-21T16:58:32.678Z,11.48
2024-04-21T17:01:02.451Z,11.36
2024-04-21T17:03:31.117Z,11.26
2024-04-21T17:06:02.891Z,11.16
2024-04-21T17:08:37.469Z,11.04
2024-04-21T17:11:05.827Z,10.91
2024-04-21T17:13:34.572Z,10.80
2024-04-21T17:16:05.546Z,10.69
2024-04-21T17:18:36.269Z,10.58
2024-04-21T17:21:07.885Z,10.49
2024-04-21T17:23:36.092Z,10.40
2024-04-21T17:26:04.499Z,10.28
2024-04-21T17:28:32.604Z,10.18
2024-04-21T17:31:00.877Z,10.07
2024-04-21T17:33:29.049Z,9.98
2024-04-21T17:35:57.059Z,9.90
2024-04-21T17:38:25.413Z,9.84
2024-04-21T17:40:53.929Z,9.78
2024-04-21T17:43:22.015Z,9.72
2024-04-21T17:45:50.201Z,9.66
2024-04-21T17:48:18.254Z,9.59
2024-04-21T17:50:47.105Z,9.52
2024-04-21T17:53:15.081Z,9.45
2024-04-21T17:55:43.147Z,9.38
2024-04-21T17:58:11.357Z,9.32
2024-04-21T18:00:39.575Z,9.25
2024-04-21T18:03:07.652Z,9.18
2024-04-21T18:05:36.641Z,9.12
2024-04-21T18:08:05.141Z,9.07
2024-04-21T18:10:33.314Z,9.02
2024-04-21T18:13:01.593Z,8.98
2024-04-21T18:15:29.778Z,8.94
2024-04-21T18:17:58.188Z,8.89
2024-04-21T18:20:26.272Z,8.85
2024-04-21T18:22:54.513Z,8.82
2024-04-21T18:25:22.625Z,8.77
2024-04-21T18:27:50.607Z,8.75
2024-04-21T18:30:18.628Z,8.72
2024-04-21T18:32:46.862Z,8.70
2024-04-21T18:35:15.034Z,8.69
2024-04-21T18:37:43.332Z,8.67
2024-04-21T18:40:11.541Z,8.65
2024-04-21T18:42:39.560Z,8.61
2024-04-21T18:45:10.990Z,8.58
2024-04-21T18:47:39.147Z,8.56
2024-04-21T18:50:07.766Z,8.55
2024-04-21T18:52:37.618Z,8.54
2024-04-21T18:55:05.998Z,8.52
2024-04-21T18:57:34.067Z,8.48
2024-04-21T19:00:02.233Z,8.46
2024-04-21T19:02:30.444Z,8.45
2024-04-21T19:04:58.630Z,8.46
2024-04-21T19:07:26.884Z,8.46
2024-04-21T19:09:56.532Z,8.44
2024-04-21T19:12:25.205Z,8.41
2024-04-21T19:14:53.407Z,8.38
2024-04-21T19:17:21.771Z,8.32
2024-04-21T19:19:50.186Z,8.26
2024-04-21T19:22:18.758Z,8.19
2024-04-21T19:24:46.778Z,8.12
2024-04-21T19:27:16.575Z,8.08
2024-04-21T19:29:45.253Z,8.06
2024-04-21T19:32:14.479Z,8.06
2024-04-21T19:34:45.679Z,8.07
2024-04-21T19:37:14.832Z,8.08
2024-04-21T19:39:42.906Z,8.08
2024-04-21T19:42:10.983Z,8.05
2024-04-21T19:44:38.999Z,8.03
2024-04-21T19:47:07.193Z,8.00
2024-04-21T19:49:35.305Z,7.95
2024-04-21T19:52:05.079Z,7.91
2024-04-21T19:54:33.100Z,7.83
2024-04-21T19:57:02.125Z,7.77
2024-04-21T19:59:30.087Z,7.73
2024-04-21T20:01:58.401Z,7.70
2024-04-21T20:04:26.557Z,7.65
2024-04-21T20:06:54.552Z,7.61
2024-04-21T20:09:22.576Z,7.57
2024-04-21T20:11:50.548Z,7.53
2024-04-21T20:14:18.584Z,7.47
2024-04-21T20:17:09.666Z,7.41
2024-04-21T20:19:38.023Z,7.37
2024-04-21T20:22:07.380Z,7.34
2024-04-21T20:24:35.439Z,7.34
2024-04-21T20:27:03.576Z,7.36
2024-04-21T20:29:32.738Z,7.37
2024-04-21T20:32:00.763Z,7.35
2024-04-21T20:34:29.903Z,7.35
2024-04-21T20:36:58.310Z,7.32
2024-04-21T20:39:26.400Z,7.29
2024-04-21T20:41:54.352Z,7.27
2024-04-21T20:44:22.328Z,7.24
2024-04-21T20:46:50.548Z,7.19
2024-04-21T20:49:18.615Z,7.16
2024-04-21T20:51:46.751Z,7.13
2024-04-21T20:54:14.796Z,7.10
2024-04-21T20:56:42.762Z,7.06
2024-04-21T20:59:10.834Z,7.02
2024-04-21T21:01:38.928Z,7.00
2024-04-21T21:04:07.530Z,6.98
2024-04-21T21:06:35.508Z,6.96
2024-04-21T21:09:04.214Z,6.96
2024-04-21T21:11:32.279Z,6.98
2024-04-21T21:14:00.362Z,6.99
2024-04-21T21:16:28.762Z,6.97
2024-04-21T21:18:56.809Z,6.95
2024-04-21T21:21:24.814Z,6.95
2024-04-21T21:23:52.789Z,6.96
2024-04-21T21:26:21.045Z,6.95
2024-04-21T21:28:49.131Z,6.97
2024-04-21T21:31:17.164Z,6.99
2024-04-21T21:33:46.621Z,7.00
2024-04-21T21:36:14.973Z,7.00
2024-04-21T21:38:44.053Z,7.00
2024-04-21T21:41:12.492Z,7.00
2024-04-21T21:43:40.712Z,6.99
2024-04-21T21:46:08.772Z,6.96
2024-04-21T21:48:36.818Z,6.92
2024-04-21T21:51:05.164Z,6.87
2024-04-21T21:53:33.131Z,6.82
2024-04-21T21:56:01.115Z,6.79
2024-04-21T21:58:29.085Z,6.76
2024-04-21T22:00:57.108Z,6.74
2024-04-21T22:03:25.167Z,6.73
2024-04-21T22:05:53.342Z,6.75
2024-04-21T22:08:21.621Z,6.78
2024-04-21T22:10:50.274Z,6.85
2024-04-21T22:13:18.348Z,6.87
2024-04-21T22:15:47.354Z,6.84
2024-04-21T22:18:19.125Z,6.81
2024-04-21T22:20:47.412Z,6.75
2024-04-21T22:23:15.331Z,6.69
2024-04-21T22:25:46.741Z,6.62
2024-04-21T22:28:15.073Z,6.56
2024-04-21T22:30:43.637Z,6.49
2024-04-21T22:33:11.810Z,6.44
2024-04-21T22:35:40.609Z,6.39
2024-04-21T22:38:08.652Z,6.39
2024-04-21T22:40:36.767Z,6.40
2024-04-21T22:43:07.088Z,6.43
2024-04-21T22:45:35.136Z,6.44
2024-04-21T22:48:03.273Z,6.39
2024-04-21T22:50:31.307Z,6.33
2024-04-21T22:52:59.237Z,6.26
2024-04-21T22:55:27.297Z,6.18
2024-04-21T22:57:55.284Z,6.11
2024-04-21T23:00:23.296Z,6.08
2024-04-21T23:02:51.307Z,6.06
2024-04-21T23:05:19.257Z,6.02
2024-04-21T23:07:47.278Z,5.99
2024-04-21T23:10:15.239Z,5.96
2024-04-21T23:12:43.246Z,5.92
2024-04-21T23:15:11.204Z,5.86
2024-04-21T23:17:39.208Z,5.81
2024-04-21T23:20:07.825Z,5.75
2024-04-21T23:22:35.882Z,5.73
2024-04-21T23:25:04.032Z,5.69
2024-04-21T23:27:32.054Z,5.66
2024-04-21T23:29:59.987Z,5.64
2024-04-21T23:32:28.231Z,5.65
2024-04-21T23:34:58.576Z,5.64
2024-04-21T23:37:26.583Z,5.63
2024-04-21T23:39:54.635Z,5.62
2024-04-21T23:42:23.078Z,5.60
2024-04-21T23:44:51.099Z,5.57
2024-04-21T23:47:19.128Z,5.55
2024-04-21T23:49:47.109Z,5.56
2024-04-21T23:52:15.205Z,5.56
2024-04-21T23:54:43.206Z,5.56
2024-04-21T23:57:11.220Z,5.55
2024-04-21T23:59:39.153Z,5.54
